Belle Mina, AL

1:19 AM CST on January 28, 2015 (GMT -0600)
Redstone Army Air Field | Change Station
CLOSE
Current Station
Airport
Location: Redstone Arsenal,
Elevation: 686 ft
Nearby Weather Stations

Elev 686 ft 34.68 °N, 86.68 °W | Updated 1 hour ago

Mostly Cloudy
Mostly Cloudy
37 °F
Feels Like 29 °F
N
13
Wind Variable Wind from NNE

Today
High -- | Low -- °F
--% Chance of Precip.
Yesterday
High -- | Low -- °F
Precip. -- in
6:48 AM 5:12 PM
First Quarter, 62% visible
Pressure 30.19 in
Visibility 10.0 miles
Clouds Overcast 2900 ft
Windchill 29 °F
Dew Point 27 °F
Humidity 66%
Rainfall 0.00 in
Snow Depth Not available.
UV 0 out of 12
Pollen 2.40 out of 12
Air Quality Not available.
Flu Activity Not available.
METAR KHUA 280558Z AUTO 02011KT 10SM OVC029 03/M03 A3019 RMK AO2 SLPNO T00301029 10066 20014 401141014 50004

More Conditions Fewer Conditions

Pressure 30.19 in
Visibility 10.0 miles
Clouds Overcast 2900 ft
Windchill 29 °F
Dew Point 27 °F
Humidity 66%
Rainfall 0.00 in
Snow Depth Not available.
UV 0 out of 12
Pollen 2.40 out of 12
Air Quality Not available.
Flu Activity Not available.
METAR KHUA 280558Z AUTO 02011KT 10SM OVC029 03/M03 A3019 RMK AO2 SLPNO T00301029 10066 20014 401141014 50004

More Conditions Fewer Conditions

10-Day Weather Forecast

Almanac

Astronomy

Jan. 28, 2015 Rise Set
Actual Time
Civil Twilight
Nautical Twilight
Astronomical Twilight
Moon
Length of Visible Light
Length of Day
Tomorrow will be .
, % of the Moon is Illuminated

Today's Extremes

State Highs State Lows

Community

WunderPhotos

Upload Photos

1,791,117 photos uploaded!

WunderBlogs® & News

Nearby

Air Quality

  Air Quality AQ Index Pollutant
Not available.

Snow Depth

Station Depth Elevation

Earthquake Activity

City Distance Mag. Time & Date
Minimum magnitude displayed is 2.5.

Coastal Water Temperatures

Place Temperature

Nearby Weather Stations